Nevel'sk, Russia
Current Conditions -  °F | °C
As of 6:00 AM on Tuesday 23 Dec 2014 (Local Time) from UHSS Reporting Station
Snow Showers Snow Showers  
Wind Chill:   Ceiling: 2300
Heat Index: 16°   Visibility: 4mi
Dew Point: 12°   Wind: 11mph
Humidity: 86%   Direction: 320°NW
Pressure: 29.35"   Gusts: NA
Location:  46.67°N, 141.86°E
Report Text: UHSS 221900Z 32005MPS 6000 -SHSN BKN023CB M09/M11 Q0994 NOSIGRMK MT OBSC QFE744/0992 19490335
Loading
Personal Weather Stations






























Interactive Weather Map New forecast layout! Learn more

10-Day Weather Forecast

Advertisements
Track Severe Weather on mobile